sensor_id;sensor_type;location;lat;lon;timestamp;pressure;altitude;pressure_sealevel;temperature;humidity
67052;BME280;53957;47.222;18.670;2022-11-02T06:10:41;100922.81;;;8.91;100.00
67052;BME280;53957;47.222;18.670;2022-11-02T06:13:48;100926.62;;;9.00;100.00
67052;BME280;53957;47.222;18.670;2022-11-02T06:16:51;100920.28;;;9.07;100.00
67052;BME280;53957;47.222;18.670;2022-11-02T06:19:54;100931.72;;;9.07;100.00
67052;BME280;53957;47.222;18.670;2022-11-02T06:22:57;100929.38;;;9.16;100.00
67052;BME280;53957;47.222;18.670;2022-11-02T06:26:01;100939.00;;;9.22;100.00
67052;BME280;53957;47.222;18.670;2022-11-02T06:29:04;100934.34;;;9.40;100.00
67052;BME280;53957;47.222;18.670;2022-11-02T06:32:07;100932.25;;;9.47;100.00
67052;BME280;53957;47.222;18.670;2022-11-02T06:35:09;100932.22;;;9.42;100.00
67052;BME280;53957;47.222;18.670;2022-11-02T06:38:14;100933.56;;;9.44;100.00
67052;BME280;53957;47.222;18.670;2022-11-02T06:41:17;100936.81;;;9.51;100.00
67052;BME280;53957;47.222;18.670;2022-11-02T06:44:20;100938.66;;;9.46;100.00
67052;BME280;53957;47.222;18.670;2022-11-02T06:47:23;100945.28;;;9.43;100.00
67052;BME280;53957;47.222;18.670;2022-11-02T06:50:26;100947.16;;;9.48;100.00
67052;BME280;53957;47.222;18.670;2022-11-02T06:53:29;100956.22;;;9.47;100.00
67052;BME280;53957;47.222;18.670;2022-11-02T06:56:32;100960.81;;;9.57;100.00
67052;BME280;53957;47.222;18.670;2022-11-02T06:59:34;100963.47;;;9.57;100.00
67052;BME280;53957;47.222;18.670;2022-11-02T07:02:41;100968.56;;;9.58;100.00
67052;BME280;53957;47.222;18.670;2022-11-02T07:05:49;100959.22;;;9.56;100.00
67052;BME280;53957;47.222;18.670;2022-11-02T07:08:53;100970.94;;;9.60;100.00
67052;BME280;53957;47.222;18.670;2022-11-02T07:11:57;100972.56;;;9.61;100.00
67052;BME280;53957;47.222;18.670;2022-11-02T07:15:00;100974.25;;;9.77;100.00
67052;BME280;53957;47.222;18.670;2022-11-02T07:18:03;100976.72;;;9.94;100.00
67052;BME280;53957;47.222;18.670;2022-11-02T07:21:07;100970.28;;;9.85;100.00
67052;BME280;53957;47.222;18.670;2022-11-02T07:24:13;100961.88;;;10.09;100.00
67052;BME280;53957;47.222;18.670;2022-11-02T07:27:16;100973.59;;;10.03;100.00
67052;BME280;53957;47.222;18.670;2022-11-02T07:30:19;100969.91;;;10.24;100.00
67052;BME280;53957;47.222;18.670;2022-11-02T07:33:22;100968.00;;;10.14;100.00
67052;BME280;53957;47.222;18.670;2022-11-02T07:36:25;100976.00;;;10.14;100.00
67052;BME280;53957;47.222;18.670;2022-11-02T07:39:28;100972.00;;;10.12;100.00
67052;BME280;53957;47.222;18.670;2022-11-02T07:42:31;100974.41;;;10.13;100.00
67052;BME280;53957;47.222;18.670;2022-11-02T07:45:34;100969.06;;;10.13;100.00
67052;BME280;53957;47.222;18.670;2022-11-02T07:48:37;100958.13;;;10.10;100.00
67052;BME280;53957;47.222;18.670;2022-11-02T07:51:40;100967.22;;;10.14;100.00
67052;BME280;53957;47.222;18.670;2022-11-02T07:54:43;100975.53;;;10.28;100.00
67052;BME280;53957;47.222;18.670;2022-11-02T07:58:01;100986.37;;;10.11;100.00
67052;BME280;53957;47.222;18.670;2022-11-02T08:01:04;100989.69;;;10.34;100.00
67052;BME280;53957;47.222;18.670;2022-11-02T08:04:07;100983.13;;;10.62;100.00
67052;BME280;53957;47.222;18.670;2022-11-02T08:07:09;100985.41;;;10.27;100.00
67052;BME280;53957;47.222;18.670;2022-11-02T08:10:13;100982.69;;;10.22;100.00
67052;BME280;53957;47.222;18.670;2022-11-02T08:13:18;100984.84;;;10.20;100.00
67052;BME280;53957;47.222;18.670;2022-11-02T08:16:21;100993.19;;;10.39;100.00
67052;BME280;53957;47.222;18.670;2022-11-02T08:19:24;100982.81;;;10.48;100.00
67052;BME280;53957;47.222;18.670;2022-11-02T08:22:27;100973.75;;;10.54;100.00
67052;BME280;53957;47.222;18.670;2022-11-02T08:25:30;100975.13;;;10.77;100.00
67052;BME280;53957;47.222;18.670;2022-11-02T08:28:34;100962.63;;;10.88;100.00
67052;BME280;53957;47.222;18.670;2022-11-02T08:31:38;100965.28;;;10.99;100.00
67052;BME280;53957;47.222;18.670;2022-11-02T08:34:40;100963.41;;;11.15;100.00
67052;BME280;53957;47.222;18.670;2022-11-02T08:37:43;100950.84;;;11.31;100.00
67052;BME280;53957;47.222;18.670;2022-11-02T08:40:48;100950.56;;;11.42;100.00
67052;BME280;53957;47.222;18.670;2022-11-02T08:43:51;100951.87;;;11.50;100.00
67052;BME280;53957;47.222;18.670;2022-11-02T08:46:54;100962.03;;;11.48;100.00
67052;BME280;53957;47.222;18.670;2022-11-02T08:49:57;100957.09;;;12.02;100.00
67052;BME280;53957;47.222;18.670;2022-11-02T08:53:00;100953.66;;;11.86;100.00
67052;BME280;53957;47.222;18.670;2022-11-02T08:56:03;100958.13;;;12.11;100.00
67052;BME280;53957;47.222;18.670;2022-11-02T08:59:07;100956.19;;;12.72;100.00
67052;BME280;53957;47.222;18.670;2022-11-02T09:02:10;100964.09;;;13.22;100.00
67052;BME280;53957;47.222;18.670;2022-11-02T09:05:13;100952.44;;;13.08;100.00
67052;BME280;53957;47.222;18.670;2022-11-02T09:08:18;100962.63;;;13.05;100.00
67052;BME280;53957;47.222;18.670;2022-11-02T09:11:21;100954.69;;;12.95;100.00
67052;BME280;53957;47.222;18.670;2022-11-02T09:14:24;100948.94;;;13.07;100.00
67052;BME280;53957;47.222;18.670;2022-11-02T09:17:27;100944.41;;;13.08;100.00
67052;BME280;53957;47.222;18.670;2022-11-02T09:20:31;100940.56;;;13.19;100.00
67052;BME280;53957;47.222;18.670;2022-11-02T09:23:34;100942.25;;;13.39;100.00
67052;BME280;53957;47.222;18.670;2022-11-02T09:26:37;100937.03;;;13.24;100.00
67052;BME280;53957;47.222;18.670;2022-11-02T09:29:40;100944.00;;;13.19;100.00
67052;BME280;53957;47.222;18.670;2022-11-02T09:32:42;100926.75;;;13.31;100.00
67052;BME280;53957;47.222;18.670;2022-11-02T09:35:47;100928.66;;;13.60;100.00
67052;BME280;53957;47.222;18.670;2022-11-02T09:38:50;100932.28;;;13.45;100.00
67052;BME280;53957;47.222;18.670;2022-11-02T09:45:13;100933.94;;;13.41;100.00
67052;BME280;53957;47.222;18.670;2022-11-02T09:48:25;100944.25;;;13.52;100.00
67052;BME280;53957;47.222;18.670;2022-11-02T09:51:34;100934.56;;;13.81;100.00
67052;BME280;53957;47.222;18.670;2022-11-02T09:54:42;100926.72;;;14.28;100.00
67052;BME280;53957;47.222;18.670;2022-11-02T09:57:50;100934.34;;;14.78;100.00
67052;BME280;53957;47.222;18.670;2022-11-02T10:01:12;100938.25;;;15.19;100.00
67052;BME280;53957;47.222;18.670;2022-11-02T10:15:01;100944.12;;;17.00;100.00
67052;BME280;53957;47.222;18.670;2022-11-02T10:18:13;100938.31;;;17.38;100.00
67052;BME280;53957;47.222;18.670;2022-11-02T10:21:26;100936.94;;;17.59;100.00
67052;BME280;53957;47.222;18.670;2022-11-02T10:24:40;100929.88;;;17.31;100.00
67052;BME280;53957;47.222;18.670;2022-11-02T10:27:47;100919.00;;;16.91;100.00
67052;BME280;53957;47.222;18.670;2022-11-02T10:30:53;100924.87;;;17.16;100.00
67052;BME280;53957;47.222;18.670;2022-11-02T10:33:59;100920.03;;;16.81;100.00
67052;BME280;53957;47.222;18.670;2022-11-02T10:37:37;100925.88;;;16.97;100.00
67052;BME280;53957;47.222;18.670;2022-11-02T10:44:14;100928.16;;;17.44;100.00
67052;BME280;53957;47.222;18.670;2022-11-02T10:47:23;100934.03;;;17.46;100.00
67052;BME280;53957;47.222;18.670;2022-11-02T10:50:58;100932.25;;;17.33;100.00
67052;BME280;53957;47.222;18.670;2022-11-02T10:54:11;100931.56;;;17.27;100.00
67052;BME280;53957;47.222;18.670;2022-11-02T11:48:09;100893.06;;;18.72;97.58
67052;BME280;53957;47.222;18.670;2022-11-02T11:54:32;100900.22;;;18.59;95.77
67052;BME280;53957;47.222;18.670;2022-11-02T11:57:35;100899.00;;;18.13;95.92
67052;BME280;53957;47.222;18.670;2022-11-02T12:00:39;100896.75;;;18.06;93.74
67052;BME280;53957;47.222;18.670;2022-11-02T12:03:58;100889.78;;;18.31;96.16
67052;BME280;53957;47.222;18.670;2022-11-02T12:17:38;100878.81;;;18.28;96.46
67052;BME280;53957;47.222;18.670;2022-11-02T12:24:44;100860.84;;;18.58;91.64
67052;BME280;53957;47.222;18.670;2022-11-02T12:31:28;100851.28;;;18.61;92.40
67052;BME280;53957;47.222;18.670;2022-11-02T12:48:54;100834.97;;;18.22;90.50
67052;BME280;53957;47.222;18.670;2022-11-02T12:55:18;100835.47;;;18.07;88.66
67052;BME280;53957;47.222;18.670;2022-11-02T12:58:27;100840.06;;;18.24;88.60
67052;BME280;53957;47.222;18.670;2022-11-02T13:01:35;100835.59;;;18.45;87.67
67052;BME280;53957;47.222;18.670;2022-11-02T13:04:50;100836.53;;;18.41;86.42
67052;BME280;53957;47.222;18.670;2022-11-02T13:11:08;100832.56;;;18.38;85.80
67052;BME280;53957;47.222;18.670;2022-11-02T13:14:17;100833.69;;;18.28;89.59
67052;BME280;53957;47.222;18.670;2022-11-02T13:23:54;100825.44;;;18.16;88.77
67052;BME280;53957;47.222;18.670;2022-11-02T13:27:01;100821.81;;;18.12;89.32
67052;BME280;53957;47.222;18.670;2022-11-02T13:30:17;100830.25;;;18.01;90.58
67052;BME280;53957;47.222;18.670;2022-11-02T13:33:33;100829.72;;;17.91;90.83
67052;BME280;53957;47.222;18.670;2022-11-02T13:36:39;100825.75;;;17.79;91.58
67052;BME280;53957;47.222;18.670;2022-11-02T13:39:49;100827.97;;;17.68;96.39
67052;BME280;53957;47.222;18.670;2022-11-02T13:50:01;100833.59;;;17.41;92.81
67052;BME280;53957;47.222;18.670;2022-11-02T13:53:06;100844.88;;;17.43;97.93
67052;BME280;53957;47.222;18.670;2022-11-02T13:56:20;100839.31;;;17.30;97.72
67052;BME280;53957;47.222;18.670;2022-11-02T13:59:30;100837.50;;;17.17;96.89
67052;BME280;53957;47.222;18.670;2022-11-02T14:02:36;100841.66;;;17.23;97.87
67052;BME280;53957;47.222;18.670;2022-11-02T14:05:49;100840.84;;;17.14;96.30
67052;BME280;53957;47.222;18.670;2022-11-02T14:08:58;100838.78;;;17.19;95.16
67052;BME280;53957;47.222;18.670;2022-11-02T14:12:26;100841.31;;;17.16;96.53
67052;BME280;53957;47.222;18.670;2022-11-02T14:18:32;100858.72;;;17.10;100.00
67052;BME280;53957;47.222;18.670;2022-11-02T14:21:40;100842.97;;;16.94;100.00
67052;BME280;53957;47.222;18.670;2022-11-02T14:27:47;100839.41;;;16.85;100.00
67052;BME280;53957;47.222;18.670;2022-11-02T14:34:26;100842.06;;;16.76;100.00
67052;BME280;53957;47.222;18.670;2022-11-02T14:47:36;100850.66;;;16.33;100.00
67052;BME280;53957;47.222;18.670;2022-11-02T14:50:41;100845.72;;;16.26;100.00
67052;BME280;53957;47.222;18.670;2022-11-02T14:53:46;100852.00;;;16.21;100.00
67052;BME280;53957;47.222;18.670;2022-11-02T15:03:51;100849.53;;;16.11;100.00
67052;BME280;53957;47.222;18.670;2022-11-02T15:06:56;100856.94;;;16.05;100.00
67052;BME280;53957;47.222;18.670;2022-11-02T15:10:39;100865.13;;;16.00;100.00
67052;BME280;53957;47.222;18.670;2022-11-02T15:13:35;100859.84;;;15.95;100.00
67052;BME280;53957;47.222;18.670;2022-11-02T15:16:38;100857.59;;;15.88;100.00
67052;BME280;53957;47.222;18.670;2022-11-02T15:26:19;100865.16;;;15.72;100.00
67052;BME280;53957;47.222;18.670;2022-11-02T15:29:42;100874.94;;;15.68;100.00
67052;BME280;53957;47.222;18.670;2022-11-02T15:32:55;100871.34;;;15.59;100.00
67052;BME280;53957;47.222;18.670;2022-11-02T15:36:06;100876.88;;;15.76;100.00
67052;BME280;53957;47.222;18.670;2022-11-02T15:39:10;100877.00;;;15.71;100.00
67052;BME280;53957;47.222;18.670;2022-11-02T16:34:21;100892.66;;;14.09;100.00
67052;BME280;53957;47.222;18.670;2022-11-02T16:37:26;100901.41;;;13.96;100.00
67052;BME280;53957;47.222;18.670;2022-11-02T16:40:30;100902.53;;;13.71;100.00
67052;BME280;53957;47.222;18.670;2022-11-02T16:43:34;100906.69;;;13.58;100.00
67052;BME280;53957;47.222;18.670;2022-11-02T16:46:53;100917.66;;;13.32;100.00
67052;BME280;53957;47.222;18.670;2022-11-02T16:49:58;100908.66;;;13.23;100.00
67052;BME280;53957;47.222;18.670;2022-11-02T16:53:01;100924.78;;;13.12;100.00
67052;BME280;53957;47.222;18.670;2022-11-02T16:59:29;100924.66;;;12.98;100.00
67052;BME280;53957;47.222;18.670;2022-11-02T17:02:40;100925.00;;;12.92;100.00
67052;BME280;53957;47.222;18.670;2022-11-02T17:05:47;100914.47;;;12.66;100.00
67052;BME280;53957;47.222;18.670;2022-11-02T17:08:53;100918.81;;;12.56;100.00
67052;BME280;53957;47.222;18.670;2022-11-02T17:11:59;100928.75;;;12.56;100.00
67052;BME280;53957;47.222;18.670;2022-11-02T17:15:17;100924.78;;;12.43;100.00
67052;BME280;53957;47.222;18.670;2022-11-02T17:21:25;100931.34;;;12.21;100.00
67052;BME280;53957;47.222;18.670;2022-11-02T17:24:30;100933.00;;;12.12;100.00
67052;BME280;53957;47.222;18.670;2022-11-02T17:27:34;100944.28;;;12.04;100.00
67052;BME280;53957;47.222;18.670;2022-11-02T17:30:44;100943.69;;;12.12;100.00
67052;BME280;53957;47.222;18.670;2022-11-02T17:33:48;100946.94;;;12.04;100.00
67052;BME280;53957;47.222;18.670;2022-11-02T17:36:52;100952.56;;;12.02;100.00
67052;BME280;53957;47.222;18.670;2022-11-02T17:40:01;100946.88;;;12.19;100.00
67052;BME280;53957;47.222;18.670;2022-11-02T17:43:04;100942.91;;;12.12;100.00
67052;BME280;53957;47.222;18.670;2022-11-02T17:46:08;100949.63;;;11.99;100.00
67052;BME280;53957;47.222;18.670;2022-11-02T17:49:12;100947.50;;;12.01;100.00
67052;BME280;53957;47.222;18.670;2022-11-02T17:52:15;100953.38;;;11.87;100.00
67052;BME280;53957;47.222;18.670;2022-11-02T17:55:21;100959.03;;;11.81;100.00
67052;BME280;53957;47.222;18.670;2022-11-02T17:58:25;100957.97;;;11.82;100.00
67052;BME280;53957;47.222;18.670;2022-11-02T18:01:28;100960.88;;;11.80;100.00
67052;BME280;53957;47.222;18.670;2022-11-02T18:04:31;100949.94;;;11.76;100.00
67052;BME280;53957;47.222;18.670;2022-11-02T18:07:35;100954.25;;;11.72;100.00
67052;BME280;53957;47.222;18.670;2022-11-02T18:10:40;100954.78;;;11.69;100.00
67052;BME280;53957;47.222;18.670;2022-11-02T18:13:43;100943.28;;;11.69;100.00
67052;BME280;53957;47.222;18.670;2022-11-02T18:16:47;100953.97;;;11.69;100.00
67052;BME280;53957;47.222;18.670;2022-11-02T18:19:50;100958.53;;;11.58;100.00
67052;BME280;53957;47.222;18.670;2022-11-02T18:22:54;100950.25;;;11.54;100.00
67052;BME280;53957;47.222;18.670;2022-11-02T18:25:57;100945.97;;;11.69;100.00
67052;BME280;53957;47.222;18.670;2022-11-02T18:29:03;100955.34;;;11.56;100.00
67052;BME280;53957;47.222;18.670;2022-11-02T18:32:06;100955.37;;;11.51;100.00
67052;BME280;53957;47.222;18.670;2022-11-02T18:35:12;100951.38;;;11.43;100.00
67052;BME280;53957;47.222;18.670;2022-11-02T18:38:15;100951.38;;;11.43;100.00
67052;BME280;53957;47.222;18.670;2022-11-02T18:41:18;100947.09;;;11.37;100.00
67052;BME280;53957;47.222;18.670;2022-11-02T18:44:32;100947.66;;;11.34;100.00
67052;BME280;53957;47.222;18.670;2022-11-02T18:47:35;100952.44;;;11.37;100.00
67052;BME280;53957;47.222;18.670;2022-11-02T18:50:39;100961.28;;;11.22;100.00
67052;BME280;53957;47.222;18.670;2022-11-02T18:53:42;100949.53;;;11.07;100.00
67052;BME280;53957;47.222;18.670;2022-11-02T18:56:46;100953.53;;;11.00;100.00
67052;BME280;53957;47.222;18.670;2022-11-02T18:59:49;100963.69;;;10.92;100.00
67052;BME280;53957;47.222;18.670;2022-11-02T19:02:52;100955.66;;;10.92;100.00
67052;BME280;53957;47.222;18.670;2022-11-02T19:05:56;100956.72;;;10.86;100.00
67052;BME280;53957;47.222;18.670;2022-11-02T19:09:19;100959.16;;;10.88;100.00
67052;BME280;53957;47.222;18.670;2022-11-02T19:12:27;100960.47;;;10.70;100.00
67052;BME280;53957;47.222;18.670;2022-11-02T19:15:33;100956.47;;;10.67;100.00
67052;BME280;53957;47.222;18.670;2022-11-02T19:18:43;100958.31;;;10.56;100.00
67052;BME280;53957;47.222;18.670;2022-11-02T19:21:46;100950.03;;;10.58;100.00
67052;BME280;53957;47.222;18.670;2022-11-02T19:24:51;100958.28;;;10.46;100.00
67052;BME280;53957;47.222;18.670;2022-11-02T19:27:54;100962.00;;;10.40;100.00
67052;BME280;53957;47.222;18.670;2022-11-02T19:30:57;100963.53;;;10.30;100.00
67052;BME280;53957;47.222;18.670;2022-11-02T19:34:00;100962.97;;;10.23;100.00
67052;BME280;53957;47.222;18.670;2022-11-02T19:37:05;100968.06;;;10.25;100.00
67052;BME280;53957;47.222;18.670;2022-11-02T19:40:09;100960.28;;;10.08;100.00
67052;BME280;53957;47.222;18.670;2022-11-02T19:43:14;100967.69;;;9.95;100.00
67052;BME280;53957;47.222;18.670;2022-11-02T19:46:19;100969.78;;;9.88;100.00
67052;BME280;53957;47.222;18.670;2022-11-02T19:49:22;100969.69;;;9.73;100.00
67052;BME280;53957;47.222;18.670;2022-11-02T19:52:25;100967.62;;;9.85;100.00
67052;BME280;53957;47.222;18.670;2022-11-02T19:55:29;100963.81;;;9.65;100.00
67052;BME280;53957;47.222;18.670;2022-11-02T19:58:32;100971.28;;;9.74;100.00
67052;BME280;53957;47.222;18.670;2022-11-02T20:01:37;100972.87;;;9.70;100.00
67052;BME280;53957;47.222;18.670;2022-11-02T20:04:42;100976.31;;;9.70;100.00
67052;BME280;53957;47.222;18.670;2022-11-02T20:07:46;100969.13;;;9.65;100.00
67052;BME280;53957;47.222;18.670;2022-11-02T20:10:49;100968.09;;;9.72;100.00
67052;BME280;53957;47.222;18.670;2022-11-02T20:13:54;100967.59;;;9.80;100.00
67052;BME280;53957;47.222;18.670;2022-11-02T20:16:58;100964.28;;;9.57;100.00
67052;BME280;53957;47.222;18.670;2022-11-02T20:20:22;100975.72;;;9.58;100.00
67052;BME280;53957;47.222;18.670;2022-11-02T20:23:25;100961.06;;;9.55;100.00
67052;BME280;53957;47.222;18.670;2022-11-02T20:26:31;100968.00;;;9.56;100.00
67052;BME280;53957;47.222;18.670;2022-11-02T20:29:34;100970.59;;;9.46;100.00
67052;BME280;53957;47.222;18.670;2022-11-02T20:32:38;100965.84;;;9.53;100.00
67052;BME280;53957;47.222;18.670;2022-11-02T20:35:48;100971.38;;;9.41;100.00
67052;BME280;53957;47.222;18.670;2022-11-02T20:38:52;100969.59;;;9.52;100.00
67052;BME280;53957;47.222;18.670;2022-11-02T20:41:56;100964.66;;;9.33;100.00
67052;BME280;53957;47.222;18.670;2022-11-02T20:44:58;100967.25;;;9.28;100.00
67052;BME280;53957;47.222;18.670;2022-11-02T20:48:02;100964.34;;;9.25;100.00
67052;BME280;53957;47.222;18.670;2022-11-02T20:51:08;100969.94;;;9.28;100.00
67052;BME280;53957;47.222;18.670;2022-11-02T20:54:12;100968.41;;;9.38;100.00
67052;BME280;53957;47.222;18.670;2022-11-02T20:57:15;100961.19;;;9.33;100.00
67052;BME280;53957;47.222;18.670;2022-11-02T21:00:19;100974.72;;;9.26;100.00
67052;BME280;53957;47.222;18.670;2022-11-02T21:03:23;100984.75;;;9.14;100.00
67052;BME280;53957;47.222;18.670;2022-11-02T21:06:26;100988.12;;;9.04;100.00
67052;BME280;53957;47.222;18.670;2022-11-02T21:09:29;100992.63;;;9.03;100.00
67052;BME280;53957;47.222;18.670;2022-11-02T21:12:32;100996.19;;;9.14;100.00
67052;BME280;53957;47.222;18.670;2022-11-02T21:15:53;100999.37;;;9.11;100.00
67052;BME280;53957;47.222;18.670;2022-11-02T21:18:57;101002.03;;;9.11;100.00
67052;BME280;53957;47.222;18.670;2022-11-02T21:22:00;101001.16;;;9.06;100.00
67052;BME280;53957;47.222;18.670;2022-11-02T21:25:03;100992.16;;;9.12;100.00
67052;BME280;53957;47.222;18.670;2022-11-02T21:28:06;100998.72;;;8.99;100.00
67052;BME280;53957;47.222;18.670;2022-11-02T21:31:12;100997.16;;;9.03;100.00
67052;BME280;53957;47.222;18.670;2022-11-02T21:34:21;100986.72;;;8.96;100.00
67052;BME280;53957;47.222;18.670;2022-11-02T21:37:23;101000.56;;;8.98;100.00
67052;BME280;53957;47.222;18.670;2022-11-02T21:40:27;100995.88;;;9.11;100.00
67052;BME280;53957;47.222;18.670;2022-11-02T21:43:33;100996.47;;;9.18;100.00
67052;BME280;53957;47.222;18.670;2022-11-02T21:46:36;100997.66;;;9.32;100.00
67052;BME280;53957;47.222;18.670;2022-11-02T21:49:39;100999.03;;;9.40;100.00
67052;BME280;53957;47.222;18.670;2022-11-02T21:52:42;101007.59;;;9.42;100.00
67052;BME280;53957;47.222;18.670;2022-11-02T21:55:55;101011.06;;;9.48;100.00
67052;BME280;53957;47.222;18.670;2022-11-02T21:58:57;100996.94;;;9.42;100.00
67052;BME280;53957;47.222;18.670;2022-11-02T22:02:00;101001.28;;;9.54;100.00
67052;BME280;53957;47.222;18.670;2022-11-02T22:05:04;100998.75;;;9.37;100.00
67052;BME280;53957;47.222;18.670;2022-11-02T22:08:07;100995.59;;;9.40;100.00
67052;BME280;53957;47.222;18.670;2022-11-02T22:11:28;100994.50;;;9.41;100.00
67052;BME280;53957;47.222;18.670;2022-11-02T22:14:31;100987.66;;;9.50;100.00
67052;BME280;53957;47.222;18.670;2022-11-02T22:17:34;100995.19;;;9.58;100.00
67052;BME280;53957;47.222;18.670;2022-11-02T22:20:54;100993.19;;;9.81;100.00
67052;BME280;53957;47.222;18.670;2022-11-02T22:23:58;100987.81;;;9.71;100.00
67052;BME280;53957;47.222;18.670;2022-11-02T22:27:01;100993.63;;;9.67;100.00
67052;BME280;53957;47.222;18.670;2022-11-02T22:30:04;100995.28;;;9.79;100.00
67052;BME280;53957;47.222;18.670;2022-11-02T22:33:09;100994.84;;;9.97;100.00
67052;BME280;53957;47.222;18.670;2022-11-02T22:36:14;100994.66;;;10.09;100.00
67052;BME280;53957;47.222;18.670;2022-11-02T22:39:17;100999.69;;;10.06;100.00
67052;BME280;53957;47.222;18.670;2022-11-02T22:42:20;101001.62;;;10.21;100.00
67052;BME280;53957;47.222;18.670;2022-11-02T22:45:23;100996.84;;;10.23;100.00
67052;BME280;53957;47.222;18.670;2022-11-02T22:48:26;100995.81;;;10.34;100.00
67052;BME280;53957;47.222;18.670;2022-11-02T22:51:32;101000.94;;;10.41;100.00
67052;BME280;53957;47.222;18.670;2022-11-02T22:54:36;101000.66;;;10.37;100.00
67052;BME280;53957;47.222;18.670;2022-11-02T22:57:38;101006.00;;;10.37;100.00
67052;BME280;53957;47.222;18.670;2022-11-02T23:00:41;101008.88;;;10.36;100.00
67052;BME280;53957;47.222;18.670;2022-11-02T23:03:46;101003.53;;;10.36;100.00
67052;BME280;53957;47.222;18.670;2022-11-02T23:06:48;101001.12;;;10.29;100.00
67052;BME280;53957;47.222;18.670;2022-11-02T23:09:51;100991.53;;;10.28;100.00
67052;BME280;53957;47.222;18.670;2022-11-02T23:12:54;100994.56;;;10.47;100.00
67052;BME280;53957;47.222;18.670;2022-11-02T23:16:01;100994.03;;;10.50;100.00
67052;BME280;53957;47.222;18.670;2022-11-02T23:19:23;100991.66;;;10.64;100.00
67052;BME280;53957;47.222;18.670;2022-11-02T23:22:31;101006.87;;;10.79;100.00
67052;BME280;53957;47.222;18.670;2022-11-02T23:25:34;100996.75;;;10.86;100.00
67052;BME280;53957;47.222;18.670;2022-11-02T23:28:36;101005.59;;;10.92;100.00
67052;BME280;53957;47.222;18.670;2022-11-02T23:31:58;101001.59;;;10.94;100.00
67052;BME280;53957;47.222;18.670;2022-11-02T23:35:19;101005.03;;;10.95;100.00
67052;BME280;53957;47.222;18.670;2022-11-02T23:38:43;101009.87;;;10.98;100.00
67052;BME280;53957;47.222;18.670;2022-11-02T23:42:05;101002.69;;;11.04;100.00
67052;BME280;53957;47.222;18.670;2022-11-02T23:45:09;101000.25;;;10.92;100.00
67052;BME280;53957;47.222;18.670;2022-11-02T23:48:12;100995.97;;;10.81;100.00
67052;BME280;53957;47.222;18.670;2022-11-02T23:51:14;100985.81;;;10.67;100.00
67052;BME280;53957;47.222;18.670;2022-11-02T23:54:36;100986.59;;;10.62;100.00
67052;BME280;53957;47.222;18.670;2022-11-02T23:57:57;100997.00;;;10.64;100.00
